createdAt,value
2018-04-15T00:04:13.362Z,60.10
2018-04-15T00:06:46.002Z,65.90
2018-04-15T00:09:23.506Z,74.68
2018-04-15T00:11:55.028Z,68.55
2018-04-15T00:14:26.615Z,68.03
2018-04-15T00:16:58.135Z,69.32
2018-04-15T00:22:56.254Z,70.07
2018-04-15T00:25:29.088Z,61.00
2018-04-15T00:28:07.097Z,69.62
2018-04-15T00:52:33.841Z,60.97
2018-04-15T00:55:05.808Z,63.78
2018-04-15T00:57:39.634Z,62.15
2018-04-15T01:00:20.707Z,72.22
2018-04-15T01:06:17.857Z,72.20
2018-04-15T01:08:56.447Z,55.83
2018-04-15T01:11:44.172Z,63.92
2018-04-15T02:22:31.638Z,68.97
2018-04-15T02:28:20.118Z,60.65
2018-04-15T02:30:51.439Z,60.63
2018-04-15T02:33:33.435Z,63.20
2018-04-15T02:36:06.230Z,73.37
2018-04-15T02:38:44.117Z,63.08
2018-04-15T02:41:15.405Z,57.62
2018-04-15T02:49:10.745Z,63.85
2018-04-15T03:01:34.564Z,62.45
2018-04-15T03:04:06.034Z,75.90
2018-04-15T03:10:50.944Z,60.95
2018-04-15T03:28:12.324Z,61.33
2018-04-15T03:49:33.141Z,55.67
2018-04-15T04:01:25.873Z,55.92
2018-04-15T04:10:44.514Z,66.60
2018-04-15T04:13:17.131Z,62.40
2018-04-15T04:19:03.328Z,52.47
2018-04-15T04:30:46.800Z,55.60
2018-04-15T04:33:18.455Z,60.78
2018-04-15T04:35:51.389Z,60.08
2018-04-15T04:38:26.305Z,69.43
2018-04-15T04:41:19.769Z,57.53
2018-04-15T04:43:54.987Z,65.00
2018-04-15T04:49:48.486Z,57.75
2018-04-15T04:52:20.073Z,60.20
2018-04-15T04:54:51.376Z,63.33
2018-04-15T04:57:22.815Z,59.17
2018-04-15T05:03:33.530Z,60.70
2018-04-15T05:17:27.538Z,55.35
2018-04-15T05:23:22.391Z,69.25
2018-04-15T05:25:53.866Z,64.35
2018-04-15T05:28:26.248Z,65.00
2018-04-15T05:30:58.255Z,62.03
2018-04-15T05:33:30.238Z,58.75
2018-04-15T05:36:05.521Z,60.28
2018-04-15T05:41:54.069Z,63.63
2018-04-15T05:44:25.398Z,59.80
2018-04-15T05:46:56.569Z,63.90
2018-04-15T05:49:27.573Z,60.33
2018-04-15T05:51:58.801Z,63.28
2018-04-15T05:54:29.889Z,66.43
2018-04-15T05:57:01.419Z,60.63
2018-04-15T05:59:33.578Z,62.50
2018-04-15T06:15:32.494Z,78.40
2018-04-15T06:18:12.141Z,64.28
2018-04-15T06:30:24.692Z,61.10
2018-04-15T06:33:02.500Z,68.60
2018-04-15T06:35:34.251Z,61.53
2018-04-15T06:38:06.810Z,61.30
2018-04-15T06:40:41.156Z,67.50
2018-04-15T06:43:12.867Z,63.25
2018-04-15T06:45:45.724Z,68.30
2018-04-15T06:48:19.847Z,67.72
2018-04-15T06:50:53.068Z,65.90
2018-04-15T06:53:30.527Z,67.47
2018-04-15T06:56:05.966Z,68.57
2018-04-15T06:58:38.610Z,59.33
2018-04-15T07:01:11.119Z,61.45
2018-04-15T07:03:48.480Z,65.65
2018-04-15T07:06:23.263Z,63.38
2018-04-15T07:09:07.445Z,65.05
2018-04-15T07:11:47.446Z,65.80
2018-04-15T07:14:23.930Z,61.60
2018-04-15T07:17:03.230Z,69.18
2018-04-15T07:19:36.137Z,65.10
2018-04-15T07:22:08.197Z,68.43
2018-04-15T07:24:40.392Z,73.90
2018-04-15T07:27:12.078Z,71.60
2018-04-15T07:29:43.414Z,76.50
2018-04-15T07:32:15.744Z,74.10
2018-04-15T07:34:48.346Z,69.53
2018-04-15T07:37:24.722Z,66.80
2018-04-15T07:40:01.095Z,72.95
2018-04-15T07:42:34.845Z,69.20
2018-04-15T07:45:09.365Z,69.25
2018-04-15T07:48:04.103Z,73.32
2018-04-15T07:50:37.917Z,70.90
2018-04-15T07:53:09.471Z,71.95
2018-04-15T07:55:42.209Z,76.28
2018-04-15T07:58:13.288Z,79.95
2018-04-15T08:00:44.139Z,78.28
2018-04-15T08:03:14.901Z,72.97
2018-04-15T08:05:45.823Z,70.60
2018-04-15T08:08:16.766Z,74.37
2018-04-15T08:10:47.785Z,74.62
2018-04-15T08:13:24.152Z,78.97
2018-04-15T08:15:56.841Z,75.93
2018-04-15T08:18:39.503Z,83.45
2018-04-15T08:21:14.529Z,78.55
2018-04-15T08:23:55.085Z,97.53
2018-04-15T08:29:42.525Z,77.03
2018-04-15T08:32:13.739Z,77.07
2018-04-15T08:34:46.095Z,74.60
2018-04-15T08:37:17.778Z,73.75
2018-04-15T08:39:48.795Z,73.93
2018-04-15T08:42:23.445Z,86.32
2018-04-15T08:44:54.321Z,81.53
2018-04-15T08:47:25.327Z,76.43
2018-04-15T08:49:58.660Z,80.57
2018-04-15T08:52:30.325Z,81.18
2018-04-15T08:55:01.341Z,81.15
2018-04-15T08:57:33.656Z,78.87
2018-04-15T09:00:05.404Z,86.75
2018-04-15T09:02:36.226Z,78.37
2018-04-15T09:05:13.013Z,82.20
2018-04-15T09:07:45.145Z,80.43
2018-04-15T09:13:06.262Z,82.90
2018-04-15T09:15:43.059Z,80.97
2018-04-15T09:18:13.970Z,86.95
2018-04-15T09:20:59.907Z,81.10
2018-04-15T09:26:28.822Z,83.97
2018-04-15T09:28:59.929Z,87.10
2018-04-15T09:31:32.345Z,82.60
2018-04-15T09:34:03.434Z,87.60
2018-04-15T09:36:34.652Z,90.90
2018-04-15T09:39:06.638Z,80.38
2018-04-15T09:41:37.516Z,95.38
2018-04-15T09:57:03.980Z,91.07
2018-04-15T09:59:36.268Z,89.45
2018-04-15T10:02:07.328Z,97.68
2018-04-15T10:04:39.534Z,82.97
2018-04-15T10:07:12.198Z,89.18
2018-04-15T10:09:44.781Z,86.72
2018-04-15T10:12:16.116Z,83.93
2018-04-15T10:14:48.052Z,90.12
2018-04-15T10:17:19.212Z,86.07
2018-04-15T10:19:50.664Z,85.72
2018-04-15T10:22:22.276Z,79.68
2018-04-15T10:24:53.138Z,84.20
2018-04-15T10:27:23.929Z,83.30
2018-04-15T10:29:54.704Z,91.18
2018-04-15T10:32:25.585Z,87.65
2018-04-15T10:34:56.307Z,85.93
2018-04-15T10:37:27.336Z,86.65
2018-04-15T10:39:57.969Z,87.45
2018-04-15T10:42:28.644Z,86.87
2018-04-15T10:44:59.346Z,87.75
2018-04-15T10:47:30.221Z,93.30
2018-04-15T10:50:05.566Z,85.35
2018-04-15T10:52:36.208Z,89.85
2018-04-15T10:55:06.823Z,86.80
2018-04-15T10:57:37.509Z,84.78
2018-04-15T11:00:08.055Z,85.95
2018-04-15T11:02:38.768Z,80.25
2018-04-15T11:05:09.524Z,83.75
2018-04-15T11:07:40.269Z,86.85
2018-04-15T11:10:10.930Z,83.30
2018-04-15T11:12:41.708Z,89.10
2018-04-15T11:15:12.269Z,87.65
2018-04-15T11:17:42.948Z,93.32
2018-04-15T11:20:14.107Z,88.55
2018-04-15T11:22:45.438Z,90.25
2018-04-15T11:25:16.908Z,85.93
2018-04-15T11:27:47.728Z,84.62
2018-04-15T11:30:18.525Z,85.25
2018-04-15T11:32:49.488Z,81.95
2018-04-15T11:35:20.474Z,81.35
2018-04-15T11:37:51.604Z,83.25
2018-04-15T11:40:22.509Z,81.10
2018-04-15T11:51:11.273Z,84.45
2018-04-15T11:53:44.713Z,73.82
2018-04-15T11:56:15.985Z,80.12
2018-04-15T11:58:47.089Z,81.53
2018-04-15T12:01:18.352Z,72.57
2018-04-15T12:03:49.758Z,81.93
2018-04-15T12:06:21.168Z,75.10
2018-04-15T12:08:55.439Z,79.70
2018-04-15T12:11:32.010Z,88.18
2018-04-15T12:14:33.385Z,79.57
2018-04-15T12:20:38.759Z,78.28
2018-04-15T12:23:24.850Z,82.90
2018-04-15T12:26:08.529Z,80.03
2018-04-15T12:28:43.122Z,75.78
2018-04-15T12:31:24.109Z,78.32
2018-04-15T12:34:05.080Z,79.95
2018-04-15T12:36:39.989Z,81.45
2018-04-15T12:39:15.888Z,81.85
2018-04-15T12:41:49.723Z,82.40
2018-04-15T12:44:25.990Z,83.35
2018-04-15T12:46:58.265Z,91.93
2018-04-15T12:49:31.884Z,85.68
2018-04-15T12:52:04.944Z,84.90
2018-04-15T12:54:37.025Z,84.32
2018-04-15T12:57:10.255Z,88.82
2018-04-15T12:59:43.960Z,78.68
2018-04-15T13:02:16.088Z,84.57
2018-04-15T13:04:47.841Z,82.55
2018-04-15T13:07:22.276Z,83.00
2018-04-15T13:09:59.176Z,84.75
2018-04-15T13:12:36.321Z,81.28
2018-04-15T13:15:10.936Z,81.00
2018-04-15T13:17:47.386Z,81.35
2018-04-15T13:20:18.921Z,81.35
2018-04-15T13:22:52.321Z,87.50
2018-04-15T13:25:26.570Z,80.80
2018-04-15T13:28:04.172Z,78.40
2018-04-15T13:30:38.952Z,80.32
2018-04-15T13:33:10.361Z,75.70
2018-04-15T13:35:45.917Z,79.00
2018-04-15T13:38:20.792Z,82.05
2018-04-15T13:40:55.472Z,77.18
2018-04-15T13:43:29.382Z,76.80
2018-04-15T13:46:05.599Z,79.75
2018-04-15T13:48:38.395Z,79.60
2018-04-15T13:51:13.433Z,73.93
2018-04-15T13:53:48.000Z,78.55
2018-04-15T13:59:45.839Z,90.62
2018-04-15T14:02:29.291Z,93.70
2018-04-15T14:05:02.754Z,81.53
2018-04-15T14:07:33.920Z,76.15
2018-04-15T14:10:06.143Z,77.72
2018-04-15T14:12:37.578Z,84.15
2018-04-15T14:15:08.650Z,73.80
2018-04-15T14:17:40.042Z,80.72
2018-04-15T14:20:10.942Z,86.10
2018-04-15T14:22:42.369Z,84.20
2018-04-15T14:25:13.759Z,83.75
2018-04-15T14:27:45.010Z,81.10
2018-04-15T14:30:16.347Z,81.18
2018-04-15T14:32:47.712Z,84.87
2018-04-15T14:35:18.759Z,81.30
2018-04-15T14:37:50.131Z,86.25
2018-04-15T14:40:21.341Z,80.30
2018-04-15T14:42:52.792Z,78.93
2018-04-15T14:45:24.107Z,81.75
2018-04-15T14:47:55.310Z,84.55
2018-04-15T14:50:26.718Z,87.32
2018-04-15T14:52:57.939Z,78.62
2018-04-15T14:55:28.977Z,77.57
2018-04-15T14:58:01.400Z,85.62
2018-04-15T15:00:33.584Z,78.50
2018-04-15T15:03:05.247Z,90.82
2018-04-15T15:05:36.728Z,86.47
2018-04-15T15:08:08.914Z,83.85
2018-04-15T15:10:40.078Z,85.43
2018-04-15T15:13:11.432Z,82.03
2018-04-15T15:15:42.512Z,82.53
2018-04-15T15:18:13.796Z,82.22
2018-04-15T15:20:45.075Z,84.55
2018-04-15T15:23:16.300Z,87.90
2018-04-15T15:25:47.323Z,81.95
2018-04-15T15:28:18.271Z,84.05
2018-04-15T15:30:49.399Z,84.97
2018-04-15T15:33:22.784Z,83.60
2018-04-15T15:35:54.354Z,81.28
2018-04-15T15:38:26.068Z,80.35
2018-04-15T15:40:57.398Z,84.35
2018-04-15T15:43:28.471Z,88.28
2018-04-15T15:46:00.400Z,86.03
2018-04-15T15:48:31.465Z,87.37
2018-04-15T15:51:02.757Z,82.90
2018-04-15T15:53:34.252Z,88.62
2018-04-15T15:56:06.424Z,90.87
2018-04-15T15:58:37.647Z,92.32
2018-04-15T16:01:09.030Z,88.45
2018-04-15T16:03:40.089Z,90.40
2018-04-15T16:06:11.193Z,94.80
2018-04-15T16:08:42.329Z,95.93
2018-04-15T16:11:13.896Z,93.47
2018-04-15T16:13:46.224Z,93.62
2018-04-15T16:16:17.732Z,87.88
2018-04-15T16:18:49.198Z,89.85
2018-04-15T16:21:20.489Z,93.10
2018-04-15T16:23:52.486Z,86.40
2018-04-15T16:26:24.977Z,93.65
2018-04-15T16:28:56.746Z,88.20
2018-04-15T16:31:28.240Z,89.85
2018-04-15T16:33:59.650Z,90.95
2018-04-15T16:36:31.630Z,93.53
2018-04-15T16:39:03.549Z,86.82
2018-04-15T16:41:35.030Z,89.62
2018-04-15T16:44:06.443Z,91.20
2018-04-15T16:46:37.975Z,93.97
2018-04-15T16:49:13.257Z,91.15
2018-04-15T16:51:44.762Z,92.60
2018-04-15T16:54:21.626Z,92.82
2018-04-15T16:56:53.174Z,88.40
2018-04-15T16:59:23.938Z,84.53
2018-04-15T17:01:55.216Z,85.22
2018-04-15T17:04:26.805Z,89.03
2018-04-15T17:06:58.457Z,81.87
2018-04-15T17:09:29.628Z,86.22
2018-04-15T17:12:00.729Z,95.55
2018-04-15T17:14:32.610Z,95.87
2018-04-15T17:17:03.848Z,88.57
2018-04-15T17:19:34.793Z,87.10
2018-04-15T17:22:05.998Z,95.25
2018-04-15T17:24:37.922Z,87.15
2018-04-15T17:27:13.261Z,89.18
2018-04-15T17:29:45.510Z,90.30
2018-04-15T17:32:16.517Z,89.60
2018-04-15T17:34:47.916Z,85.93
2018-04-15T17:37:20.841Z,93.95
2018-04-15T17:45:26.411Z,81.05
2018-04-15T17:47:57.714Z,81.45
2018-04-15T17:50:44.732Z,79.45
2018-04-15T17:53:16.448Z,83.40
2018-04-15T17:55:47.921Z,86.97
2018-04-15T17:58:19.689Z,90.18
2018-04-15T18:00:50.680Z,92.12
2018-04-15T18:03:21.985Z,91.12
2018-04-15T18:06:14.862Z,101.40
2018-04-15T18:08:45.927Z,89.90
2018-04-15T18:11:17.186Z,98.22
2018-04-15T18:13:48.426Z,98.25
2018-04-15T18:16:19.573Z,90.05
2018-04-15T18:18:50.832Z,95.80
2018-04-15T18:21:23.883Z,95.00
2018-04-15T18:23:55.575Z,82.28
2018-04-15T18:26:27.058Z,94.62
2018-04-15T18:28:58.301Z,97.15
2018-04-15T18:31:30.020Z,91.32
2018-04-15T18:34:01.904Z,90.05
2018-04-15T18:36:34.382Z,93.70
2018-04-15T18:39:07.156Z,93.25
2018-04-15T18:41:38.404Z,92.82
2018-04-15T18:44:11.839Z,93.75
2018-04-15T18:46:43.501Z,85.30
2018-04-15T18:49:14.595Z,88.30
2018-04-15T18:51:48.512Z,90.47
2018-04-15T18:54:19.701Z,85.68
2018-04-15T18:56:53.347Z,83.10
2018-04-15T18:59:24.848Z,88.35
2018-04-15T19:01:56.115Z,84.50
2018-04-15T19:04:28.299Z,84.03
2018-04-15T19:06:59.627Z,96.10
2018-04-15T19:09:30.684Z,85.35
2018-04-15T19:12:01.848Z,83.50
2018-04-15T19:14:32.549Z,86.10
2018-04-15T19:17:03.349Z,82.57
2018-04-15T19:19:34.531Z,81.60
2018-04-15T19:22:05.304Z,76.22
2018-04-15T19:24:36.162Z,81.15
2018-04-15T19:27:06.715Z,80.18
2018-04-15T19:29:38.224Z,81.65
2018-04-15T19:35:23.634Z,89.60
2018-04-15T19:41:18.860Z,85.18
2018-04-15T19:43:51.403Z,81.60
2018-04-15T19:46:22.819Z,82.57
2018-04-15T19:48:56.405Z,73.07
2018-04-15T19:58:18.516Z,95.38
2018-04-15T20:06:37.493Z,78.37
2018-04-15T20:09:08.430Z,82.68
2018-04-15T20:11:39.657Z,84.93
2018-04-15T20:17:07.500Z,83.47
2018-04-15T20:19:45.650Z,95.82
2018-04-15T20:25:36.641Z,86.90
2018-04-15T20:28:09.142Z,81.45
2018-04-15T20:30:46.182Z,83.37
2018-04-15T20:33:17.695Z,78.55
2018-04-15T20:41:57.828Z,79.37
2018-04-15T20:44:30.117Z,80.25
2018-04-15T20:56:41.195Z,78.62
2018-04-15T20:59:12.662Z,78.45
2018-04-15T21:01:44.006Z,84.40
2018-04-15T21:04:14.852Z,86.53
2018-04-15T21:06:46.331Z,87.70
2018-04-15T21:19:03.582Z,87.35
2018-04-15T21:21:35.035Z,85.35
2018-04-15T21:26:54.452Z,80.80
2018-04-15T21:29:25.574Z,80.62
2018-04-15T21:31:56.939Z,81.53
2018-04-15T21:34:31.948Z,86.40
2018-04-15T21:37:03.403Z,79.80
2018-04-15T21:39:35.040Z,79.28
2018-04-15T21:42:06.030Z,80.45
2018-04-15T21:44:37.059Z,80.05
2018-04-15T21:47:07.932Z,80.30
2018-04-15T21:49:38.852Z,85.20
2018-04-15T21:52:09.730Z,80.53
2018-04-15T21:54:40.581Z,78.07
2018-04-15T21:57:11.752Z,80.95
2018-04-15T21:59:42.720Z,83.15
2018-04-15T22:02:13.624Z,85.93
2018-04-15T22:04:44.740Z,83.75
2018-04-15T22:07:15.718Z,83.43
2018-04-15T22:12:33.902Z,82.45
2018-04-15T22:15:05.723Z,85.50
2018-04-15T22:17:36.966Z,91.07
2018-04-15T22:20:07.879Z,88.57
2018-04-15T22:22:43.525Z,90.60
2018-04-15T22:25:15.473Z,90.15
2018-04-15T22:27:46.448Z,94.35
2018-04-15T22:30:17.690Z,91.78
2018-04-15T22:32:48.641Z,88.20
2018-04-15T22:35:19.699Z,89.50
2018-04-15T22:37:50.589Z,87.10
2018-04-15T22:40:21.591Z,85.62
2018-04-15T22:42:52.720Z,89.65
2018-04-15T22:45:23.770Z,82.43
2018-04-15T22:47:58.867Z,89.50
2018-04-15T22:50:33.928Z,83.95
2018-04-15T22:53:05.091Z,86.40
2018-04-15T22:55:35.949Z,84.05
2018-04-15T22:58:07.073Z,82.72
2018-04-15T23:00:37.964Z,82.25
2018-04-15T23:03:09.042Z,80.82
2018-04-15T23:11:48.875Z,79.22
2018-04-15T23:14:20.243Z,78.50
2018-04-15T23:16:51.419Z,74.70
2018-04-15T23:19:22.953Z,79.03
2018-04-15T23:21:54.426Z,75.15
2018-04-15T23:24:25.560Z,83.47
2018-04-15T23:26:56.857Z,90.65
2018-04-15T23:29:27.893Z,79.18
2018-04-15T23:31:59.283Z,78.93
2018-04-15T23:34:30.363Z,78.20
2018-04-15T23:37:02.951Z,82.10
2018-04-15T23:39:34.342Z,78.43
2018-04-15T23:42:05.490Z,77.40
2018-04-15T23:44:37.669Z,82.90
2018-04-15T23:47:08.957Z,80.57
2018-04-15T23:49:40.231Z,78.20
2018-04-15T23:52:11.153Z,78.85
2018-04-15T23:54:42.401Z,80.20
2018-04-15T23:57:20.710Z,79.87
2018-04-15T23:59:52.091Z,74.57
